Alaska Railroad Corporation
Mile 43 Hourly Weather Roundup
MILE_43 12/16/2017
CLICK HERE TO SEE GRAPH!!!

        DATE  TIME  Temp   Rel  Wind  Wind  Wind  Wind  WindPeakDi
                      F Humid   Spd   Dir  Gust   Spd  Gust      
                     AVG     %   RMY   RMY   RMY    PT    PT      

  12/16/2017 16:00    22    95     0     0     0     0     0      
  12/16/2017 15:00    22    95     0     0     0     0     0      
  12/16/2017 14:00    21    95     0     0     0     0     0      
  12/16/2017 13:00    22    95     0     0     0     0     0      
  12/16/2017 12:00    22    95     0     0     0     0     0      
  12/16/2017 11:00    23    96     0     0     0     0     0      
  12/16/2017 10:00    23    96     0     0     0     0     0      
  12/16/2017 09:00    23    96     0     0     0     0     0      
  12/16/2017 08:00    23    95     0     0     0     0     0      
  12/16/2017 07:00    23    95     0     0     0     0     0      
  12/16/2017 06:00    23    95     0     0     0     0     0      
  12/16/2017 05:00    23    95     0     0     0     0     0      
  12/16/2017 04:00    23    95     0     0     0     0     0      
  12/16/2017 03:00    23    96     0     0     0     0     0      
  12/16/2017 02:00    22    96     1    18    10     1    10      
  12/16/2017 01:00    22    95     6    22    16     6    17      
  12/15/2017 24:00    22    96    12    48    21    13    25      
  12/15/2017 23:00    22    96    19    54    39    21    37      
  12/15/2017 22:00    23    96    22    73    46    25    48      
  12/15/2017 21:00    23    96    22    78    50    26    47      
  12/15/2017 20:00    23    96    28    81    58    31    56      
  12/15/2017 19:00    24    96    21    88    45    26    51      
  12/15/2017 18:00    24    96    22   101    38    32    56      
  12/15/2017 17:00    24    96    28    99    48    39    58      


CLICK HERE TO SEE GRAPH!!!